createdAt,value
2018-09-23T00:01:26.768Z,1.67
2018-09-23T00:03:55.500Z,1.60
2018-09-23T00:06:23.951Z,1.87
2018-09-23T00:08:52.568Z,1.62
2018-09-23T00:11:21.096Z,2.58
2018-09-23T00:13:49.672Z,1.60
2018-09-23T00:16:18.488Z,1.45
2018-09-23T00:18:46.953Z,1.65
2018-09-23T00:21:15.400Z,1.40
2018-09-23T00:23:44.228Z,1.72
2018-09-23T00:26:12.704Z,1.30
2018-09-23T00:28:41.156Z,1.60
2018-09-23T00:31:09.659Z,1.42
2018-09-23T00:33:38.201Z,1.65
2018-09-23T00:36:06.643Z,1.98
2018-09-23T00:38:36.351Z,1.42
2018-09-23T00:41:04.912Z,1.27
2018-09-23T00:43:33.904Z,1.67
2018-09-23T00:46:02.368Z,1.60
2018-09-23T00:48:31.004Z,1.98
2018-09-23T00:50:59.474Z,1.90
2018-09-23T00:53:27.946Z,1.60
2018-09-23T00:55:56.390Z,2.10
2018-09-23T00:58:25.182Z,2.05
2018-09-23T01:00:53.662Z,1.82
2018-09-23T01:03:22.191Z,1.90
2018-09-23T01:05:50.634Z,2.00
2018-09-23T01:08:19.142Z,2.33
2018-09-23T01:10:48.326Z,2.40
2018-09-23T01:13:16.772Z,2.80
2018-09-23T01:15:45.242Z,2.75
2018-09-23T01:18:13.917Z,2.22
2018-09-23T01:20:42.354Z,2.95
2018-09-23T01:23:10.834Z,2.47
2018-09-23T01:25:39.296Z,2.50
2018-09-23T01:28:08.042Z,2.45
2018-09-23T01:30:36.526Z,3.05
2018-09-23T01:33:05.261Z,2.40
2018-09-23T01:35:34.030Z,2.85
2018-09-23T01:38:02.515Z,2.90
2018-09-23T01:40:30.994Z,3.17
2018-09-23T01:42:59.494Z,2.70
2018-09-23T01:45:28.006Z,2.65
2018-09-23T01:47:56.486Z,2.45
2018-09-23T01:50:24.949Z,2.58
2018-09-23T01:52:53.573Z,2.95
2018-09-23T01:55:22.317Z,3.10
2018-09-23T01:57:51.105Z,3.10
2018-09-23T02:00:19.641Z,2.55
2018-09-23T02:02:48.081Z,2.40
2018-09-23T02:05:16.553Z,2.35
2018-09-23T02:07:45.070Z,3.15
2018-09-23T02:10:14.126Z,2.83
2018-09-23T02:12:42.678Z,3.25
2018-09-23T02:15:11.147Z,2.60
2018-09-23T02:17:39.737Z,2.45
2018-09-23T02:20:08.301Z,2.40
2018-09-23T02:22:36.866Z,3.05
2018-09-23T02:25:05.445Z,2.30
2018-09-23T02:27:33.997Z,2.60
2018-09-23T02:30:02.607Z,2.10
2018-09-23T02:32:31.081Z,2.20
2018-09-23T02:34:59.553Z,2.50
2018-09-23T02:37:28.385Z,2.70
2018-09-23T02:39:56.853Z,2.60
2018-09-23T02:42:25.309Z,2.20
2018-09-23T02:44:54.049Z,2.80
2018-09-23T02:47:22.489Z,2.90
2018-09-23T02:49:50.945Z,2.47
2018-09-23T02:52:19.511Z,2.33
2018-09-23T02:54:48.105Z,2.62
2018-09-23T02:57:16.681Z,2.60
2018-09-23T02:59:47.557Z,2.67
2018-09-23T03:02:16.365Z,2.80
2018-09-23T03:04:46.657Z,2.95
2018-09-23T03:07:15.084Z,3.00
2018-09-23T03:09:43.533Z,2.80
2018-09-23T03:12:12.097Z,2.72
2018-09-23T03:14:40.701Z,2.45
2018-09-23T03:17:09.177Z,2.37
2018-09-23T03:19:37.649Z,2.20
2018-09-23T03:22:06.146Z,2.55
2018-09-23T03:24:34.869Z,2.72
2018-09-23T03:27:03.364Z,2.70
2018-09-23T03:29:32.085Z,2.15
2018-09-23T03:32:00.524Z,2.02
2018-09-23T03:34:28.989Z,2.27
2018-09-23T03:36:57.437Z,2.50
2018-09-23T03:39:25.884Z,2.67
2018-09-23T03:41:54.384Z,2.87
2018-09-23T03:44:22.837Z,2.52
2018-09-23T03:46:51.284Z,2.40
2018-09-23T03:49:19.817Z,3.15
2018-09-23T03:51:48.649Z,2.35
2018-09-23T03:54:17.097Z,3.25
2018-09-23T03:56:45.562Z,3.47
2018-09-23T03:59:14.029Z,3.55
2018-09-23T04:01:43.033Z,4.15
2018-09-23T04:04:12.153Z,3.50
2018-09-23T04:06:40.581Z,3.47
2018-09-23T04:09:09.325Z,2.80
2018-09-23T04:11:37.929Z,2.87
2018-09-23T04:14:06.493Z,2.72
2018-09-23T04:16:35.589Z,2.75
2018-09-23T04:19:04.953Z,2.80
2018-09-23T04:21:33.397Z,2.60
2018-09-23T04:25:31.044Z,2.90
2018-09-23T04:28:00.100Z,2.72
2018-09-23T04:30:28.556Z,2.50
2018-09-23T04:32:57.145Z,2.40
2018-09-23T04:35:25.589Z,2.20
2018-09-23T04:37:54.045Z,2.42
2018-09-23T04:40:22.889Z,2.55
2018-09-23T04:42:51.629Z,2.65
2018-09-23T04:45:20.434Z,2.75
2018-09-23T04:47:49.124Z,2.40
2018-09-23T04:50:17.816Z,2.65
2018-09-23T04:52:46.272Z,2.35
2018-09-23T04:55:14.790Z,3.05
2018-09-23T04:57:43.202Z,2.92
2018-09-23T05:00:11.644Z,2.92
2018-09-23T05:02:40.284Z,2.62
2018-09-23T05:05:08.750Z,2.47
2018-09-23T05:07:37.192Z,2.60
2018-09-23T05:10:05.710Z,2.70
2018-09-23T05:12:34.148Z,2.42
2018-09-23T05:15:02.608Z,2.50
2018-09-23T05:17:31.472Z,2.22
2018-09-23T05:19:59.920Z,2.17
2018-09-23T05:22:28.444Z,3.15
2018-09-23T05:24:56.888Z,2.27
2018-09-23T05:27:25.457Z,3.20
2018-09-23T05:29:54.224Z,2.15
2018-09-23T05:32:22.661Z,2.10
2018-09-23T05:34:51.099Z,2.25
2018-09-23T05:37:19.652Z,2.37
2018-09-23T05:39:48.083Z,2.20
2018-09-23T05:42:16.568Z,2.37
2018-09-23T05:44:45.064Z,2.20
2018-09-23T05:47:13.784Z,2.52
2018-09-23T05:49:42.500Z,2.52
2018-09-23T05:52:10.972Z,2.70
2018-09-23T05:54:39.433Z,2.50
2018-09-23T05:57:07.884Z,4.00
2018-09-23T05:59:36.928Z,2.30
2018-09-23T06:02:05.364Z,2.45
2018-09-23T06:04:33.804Z,1.98
2018-09-23T06:07:02.660Z,2.55
2018-09-23T06:09:31.109Z,2.50
2018-09-23T06:11:59.552Z,2.42
2018-09-23T06:14:28.021Z,2.40
2018-09-23T06:16:56.488Z,2.00
2018-09-23T06:19:25.368Z,2.30
2018-09-23T06:21:54.203Z,2.30
2018-09-23T06:24:22.860Z,2.00
2018-09-23T06:26:51.299Z,2.37
2018-09-23T06:29:19.791Z,2.77
2018-09-23T06:31:48.231Z,2.35
2018-09-23T06:34:16.734Z,2.70
2018-09-23T06:36:45.219Z,2.47
2018-09-23T06:39:13.727Z,2.20
2018-09-23T06:41:42.180Z,2.33
2018-09-23T06:44:10.663Z,2.70
2018-09-23T06:46:39.140Z,2.77
2018-09-23T06:49:07.584Z,2.58
2018-09-23T06:51:36.097Z,2.58
2018-09-23T06:54:04.543Z,3.10
2018-09-23T06:56:33.308Z,3.17
2018-09-23T06:59:02.091Z,3.00
2018-09-23T07:01:30.531Z,2.80
2018-09-23T07:03:59.068Z,2.70
2018-09-23T07:06:27.568Z,2.30
2018-09-23T07:08:56.007Z,2.58
2018-09-23T07:11:24.500Z,2.80
2018-09-23T07:13:53.283Z,2.30
2018-09-23T07:16:21.743Z,2.58
2018-09-23T07:18:50.203Z,2.37
2018-09-23T07:21:18.855Z,2.80
2018-09-23T07:23:47.341Z,2.27
2018-09-23T07:26:15.775Z,2.12
2018-09-23T07:28:44.231Z,2.83
2018-09-23T07:31:12.735Z,1.95
2018-09-23T07:33:41.171Z,2.55
2018-09-23T07:36:09.679Z,2.40
2018-09-23T07:38:38.150Z,2.33
2018-09-23T07:41:06.823Z,2.70
2018-09-23T07:43:35.606Z,2.40
2018-09-23T07:46:04.355Z,2.10
2018-09-23T07:48:32.787Z,2.33
2018-09-23T07:51:01.275Z,2.33
2018-09-23T07:53:29.723Z,2.05
2018-09-23T07:55:58.219Z,2.45
2018-09-23T07:58:26.731Z,2.10
2018-09-23T08:00:55.211Z,2.40
2018-09-23T08:03:23.735Z,2.55
2018-09-23T08:05:52.163Z,2.35
2018-09-23T08:08:20.618Z,2.50
2018-09-23T08:10:49.147Z,2.00
2018-09-23T08:13:17.775Z,1.90
2018-09-23T08:15:46.435Z,2.40
2018-09-23T08:18:14.994Z,2.40
2018-09-23T08:20:43.487Z,2.12
2018-09-23T08:23:12.050Z,2.10
2018-09-23T08:25:40.845Z,1.98
2018-09-23T08:28:09.440Z,1.98
2018-09-23T08:30:37.918Z,2.33
2018-09-23T08:33:06.775Z,2.37
2018-09-23T08:35:35.230Z,2.30
2018-09-23T08:38:03.702Z,2.83
2018-09-23T08:40:32.189Z,2.20
2018-09-23T08:43:02.173Z,2.08
2018-09-23T08:45:30.702Z,2.42
2018-09-23T08:47:59.279Z,2.37
2018-09-23T08:50:27.689Z,2.33
2018-09-23T08:52:56.153Z,2.37
2018-09-23T08:55:25.045Z,2.45
2018-09-23T08:57:53.613Z,2.08
2018-09-23T09:00:22.221Z,2.42
2018-09-23T09:02:51.025Z,2.77
2018-09-23T09:05:19.489Z,2.02
2018-09-23T09:07:48.049Z,2.80
2018-09-23T09:10:16.517Z,2.40
2018-09-23T09:12:44.989Z,2.30
2018-09-23T09:15:13.481Z,2.47
2018-09-23T09:17:41.925Z,2.52
2018-09-23T09:20:10.889Z,2.40
2018-09-23T09:22:39.352Z,2.02
2018-09-23T09:25:07.816Z,2.27
2018-09-23T09:27:36.285Z,1.90
2018-09-23T09:30:04.921Z,2.20
2018-09-23T09:32:33.369Z,2.22
2018-09-23T09:35:01.917Z,2.05
2018-09-23T09:37:30.389Z,1.80
2018-09-23T09:39:58.865Z,1.82
2018-09-23T09:42:27.362Z,1.90
2018-09-23T09:44:56.077Z,2.12
2018-09-23T09:47:30.429Z,2.17
2018-09-23T09:49:59.133Z,2.12
2018-09-23T09:52:27.582Z,1.90
2018-09-23T09:54:56.361Z,1.65
2018-09-23T09:57:24.849Z,2.47
2018-09-23T09:59:53.552Z,1.82
2018-09-23T10:02:22.424Z,2.05
2018-09-23T10:04:50.944Z,1.57
2018-09-23T10:07:19.432Z,1.62
2018-09-23T10:09:48.028Z,1.67
2018-09-23T10:12:16.496Z,1.77
2018-09-23T10:14:44.939Z,1.77
2018-09-23T10:17:13.499Z,1.50
2018-09-23T10:19:42.208Z,1.50
2018-09-23T10:22:10.832Z,1.50
2018-09-23T10:24:39.406Z,1.82
2018-09-23T10:27:07.855Z,1.75
2018-09-23T10:29:36.299Z,1.80
2018-09-23T10:32:04.783Z,1.87
2018-09-23T10:34:34.048Z,1.82
2018-09-23T10:37:02.679Z,1.67
2018-09-23T10:39:31.255Z,1.40
2018-09-23T10:41:59.707Z,2.17
2018-09-23T10:44:28.251Z,1.80
2018-09-23T10:46:56.771Z,1.55
2018-09-23T10:49:25.255Z,1.92
2018-09-23T10:51:53.699Z,2.08
2018-09-23T10:54:22.203Z,2.10
2018-09-23T10:56:50.655Z,1.55
2018-09-23T10:59:19.101Z,1.70
2018-09-23T11:01:47.615Z,1.85
2018-09-23T11:04:16.106Z,1.80
2018-09-23T11:06:44.542Z,1.50
2018-09-23T11:09:13.007Z,1.77
2018-09-23T11:11:41.491Z,1.62
2018-09-23T11:14:10.479Z,1.30
2018-09-23T11:16:39.031Z,1.40
2018-09-23T11:19:07.518Z,1.57
2018-09-23T11:21:35.975Z,1.12
2018-09-23T11:24:04.675Z,1.07
2018-09-23T11:26:33.279Z,1.40
2018-09-23T11:29:01.919Z,1.10
2018-09-23T11:31:30.387Z,1.40
2018-09-23T11:33:58.882Z,1.35
2018-09-23T11:36:27.655Z,1.30
2018-09-23T11:38:56.199Z,1.30
2018-09-23T11:41:24.635Z,1.32
2018-09-23T11:43:53.074Z,1.45
2018-09-23T11:46:21.594Z,1.37
2018-09-23T11:48:50.105Z,1.10
2018-09-23T11:51:18.559Z,1.40
2018-09-23T11:53:47.038Z,1.25
2018-09-23T11:56:15.822Z,1.40
2018-09-23T11:58:44.287Z,1.17
2018-09-23T12:01:12.894Z,1.50
2018-09-23T12:03:41.383Z,1.20
2018-09-23T12:06:10.248Z,1.30
2018-09-23T12:08:38.823Z,1.27
2018-09-23T12:11:07.655Z,1.10
2018-09-23T12:13:36.115Z,1.20
2018-09-23T12:16:04.559Z,1.25
2018-09-23T12:18:33.411Z,1.25
2018-09-23T12:21:02.195Z,1.00
2018-09-23T12:23:32.703Z,1.32
2018-09-23T12:26:01.849Z,1.10
2018-09-23T12:28:30.795Z,1.47
2018-09-23T12:30:59.655Z,1.00
2018-09-23T12:33:28.139Z,1.12
2018-09-23T12:36:00.844Z,1.15
2018-09-23T12:38:29.735Z,1.30
2018-09-23T12:40:58.219Z,1.10
2018-09-23T12:43:26.722Z,1.42
2018-09-23T12:45:55.516Z,1.05
2018-09-23T12:48:24.103Z,1.25
2018-09-23T12:50:52.570Z,0.70
2018-09-23T12:53:21.031Z,0.90
2018-09-23T12:55:49.900Z,1.00
2018-09-23T12:58:18.358Z,1.12
2018-09-23T13:00:47.567Z,1.30
2018-09-23T13:03:16.042Z,1.40
2018-09-23T13:05:44.479Z,1.00
2018-09-23T13:08:12.974Z,1.17
2018-09-23T13:10:41.631Z,1.22
2018-09-23T13:13:11.007Z,1.80
2018-09-23T13:15:39.479Z,1.20
2018-09-23T13:18:07.954Z,1.40
2018-09-23T13:20:36.440Z,1.22
2018-09-23T13:23:04.915Z,1.25
2018-09-23T13:25:33.384Z,1.30
2018-09-23T13:28:02.140Z,1.35
2018-09-23T13:30:30.648Z,1.27
2018-09-23T13:32:59.132Z,1.27
2018-09-23T13:35:27.887Z,1.30
2018-09-23T13:37:56.367Z,1.72
2018-09-23T13:40:24.836Z,1.00
2018-09-23T13:42:53.308Z,1.47
2018-09-23T13:45:22.132Z,1.32
2018-09-23T13:47:50.588Z,1.45
2018-09-23T13:50:19.059Z,1.42
2018-09-23T13:52:47.495Z,1.47
2018-09-23T13:55:15.988Z,1.20
2018-09-23T13:57:44.439Z,1.65
2018-09-23T14:00:12.880Z,1.27
2018-09-23T14:02:41.375Z,1.32
2018-09-23T14:05:10.305Z,1.12
2018-09-23T14:07:38.751Z,1.22
2018-09-23T14:10:10.475Z,1.07
2018-09-23T14:12:39.027Z,1.17
2018-09-23T14:15:07.747Z,1.30
2018-09-23T14:17:36.204Z,1.27
2018-09-23T14:20:04.810Z,1.30
2018-09-23T14:22:33.628Z,1.20
2018-09-23T14:25:02.433Z,1.55
2018-09-23T14:27:31.081Z,1.45
2018-09-23T14:29:59.686Z,1.40
2018-09-23T14:32:28.203Z,1.30
2018-09-23T14:34:57.281Z,1.05
2018-09-23T14:37:26.446Z,2.10
2018-09-23T14:39:56.249Z,1.45
2018-09-23T14:42:24.862Z,1.22
2018-09-23T14:44:53.764Z,1.50
2018-09-23T14:47:22.234Z,1.30
2018-09-23T14:49:51.538Z,1.82
2018-09-23T14:52:20.338Z,1.40
2018-09-23T14:54:49.156Z,1.35
2018-09-23T14:57:17.605Z,1.90
2018-09-23T14:59:46.551Z,1.20
2018-09-23T15:02:15.021Z,1.45
2018-09-23T15:04:43.620Z,1.30
2018-09-23T15:07:12.117Z,1.25
2018-09-23T15:09:40.573Z,1.32
2018-09-23T15:12:09.077Z,1.60
2018-09-23T15:14:37.637Z,1.50
2018-09-23T15:17:06.081Z,1.72
2018-09-23T15:19:34.554Z,1.60
2018-09-23T15:22:03.157Z,1.50
2018-09-23T15:24:31.687Z,1.52
2018-09-23T15:27:00.357Z,1.20
2018-09-23T15:29:28.844Z,1.37
2018-09-23T15:31:57.426Z,1.40
2018-09-23T15:34:25.980Z,1.77
2018-09-23T15:36:54.448Z,1.40
2018-09-23T15:39:22.987Z,1.92
2018-09-23T15:41:51.436Z,2.30
2018-09-23T15:44:19.908Z,1.57
2018-09-23T15:46:48.552Z,1.57
2018-09-23T15:49:17.161Z,1.40
2018-09-23T15:51:45.837Z,1.45
2018-09-23T15:54:14.280Z,1.70
2018-09-23T15:56:42.756Z,1.70
2018-09-23T15:59:11.228Z,1.67
2018-09-23T16:01:39.692Z,2.33
2018-09-23T16:04:08.340Z,2.20
2018-09-23T16:06:36.812Z,1.90
2018-09-23T16:09:07.444Z,2.30
2018-09-23T16:11:35.940Z,2.02
2018-09-23T16:14:04.444Z,2.45
2018-09-23T16:16:32.908Z,2.58
2018-09-23T16:19:02.785Z,3.05
2018-09-23T16:21:31.331Z,3.65
2018-09-23T16:23:59.850Z,4.12
2018-09-23T16:26:29.183Z,5.15
2018-09-23T16:28:57.672Z,4.92
2018-09-23T16:31:26.715Z,5.40
2018-09-23T16:33:55.243Z,4.83
2018-09-23T16:36:23.719Z,4.80
2018-09-23T16:38:52.191Z,4.75
2018-09-23T16:41:20.751Z,5.00
2018-09-23T16:43:49.422Z,3.67
2018-09-23T16:46:18.015Z,3.00
2018-09-23T16:48:46.523Z,3.45
2018-09-23T16:51:15.011Z,3.50
2018-09-23T16:53:43.547Z,3.50
2018-09-23T16:56:12.047Z,4.22
2018-09-23T16:58:40.516Z,3.35
2018-09-23T17:01:08.956Z,3.95
2018-09-23T17:03:37.443Z,3.92
2018-09-23T17:06:05.980Z,3.70
2018-09-23T17:08:34.427Z,3.50
2018-09-23T17:11:02.887Z,4.22
2018-09-23T17:13:31.419Z,4.35
2018-09-23T17:16:00.243Z,5.58
2018-09-23T17:18:28.798Z,3.87
2018-09-23T17:20:57.615Z,3.87
2018-09-23T17:23:26.083Z,5.53
2018-09-23T17:25:54.515Z,4.17
2018-09-23T17:28:23.124Z,3.70
2018-09-23T17:30:51.536Z,3.33
2018-09-23T17:33:20.671Z,3.58
2018-09-23T17:35:49.480Z,4.22
2018-09-23T17:38:18.039Z,4.67
2018-09-23T17:40:46.678Z,4.58
2018-09-23T17:43:15.132Z,4.03
2018-09-23T17:45:43.612Z,4.45
2018-09-23T17:48:12.128Z,3.80
2018-09-23T17:50:40.984Z,5.05
2018-09-23T17:53:09.840Z,5.03
2018-09-23T17:55:38.479Z,4.45
2018-09-23T17:58:08.393Z,4.53
2018-09-23T18:00:36.523Z,3.98
2018-09-23T18:03:05.339Z,4.22
2018-09-23T18:05:34.136Z,3.95
2018-09-23T18:08:02.942Z,4.15
2018-09-23T18:10:32.089Z,3.95
2018-09-23T18:13:00.834Z,4.33
2018-09-23T18:15:29.394Z,5.42
2018-09-23T18:17:58.254Z,6.17
2018-09-23T18:20:27.381Z,5.65
2018-09-23T18:22:56.370Z,5.58
2018-09-23T18:25:25.293Z,4.72
2018-09-23T18:27:54.046Z,4.78
2018-09-23T18:30:23.541Z,4.10
2018-09-23T18:32:52.181Z,3.95
2018-09-23T18:35:20.793Z,3.90
2018-09-23T18:37:49.575Z,4.05
2018-09-23T18:40:19.145Z,5.22
2018-09-23T18:42:47.765Z,5.85
2018-09-23T18:45:16.854Z,5.33
2018-09-23T18:47:45.346Z,5.03
2018-09-23T18:50:14.714Z,5.97
2018-09-23T18:52:43.298Z,4.42
2018-09-23T18:55:17.216Z,3.72
2018-09-23T18:57:45.650Z,3.95
2018-09-23T19:00:14.153Z,3.50
2018-09-23T19:02:42.665Z,4.08
2018-09-23T19:05:11.127Z,5.78
2018-09-23T19:07:39.629Z,6.55
2018-09-23T19:10:07.762Z,6.12
2018-09-23T19:12:36.255Z,6.17
2018-09-23T19:15:05.279Z,6.42
2018-09-23T19:17:33.727Z,6.20
2018-09-23T19:20:07.518Z,6.28
2018-09-23T19:22:41.585Z,4.95
2018-09-23T19:25:10.337Z,4.03
2018-09-23T19:27:39.057Z,3.67
2018-09-23T19:30:07.524Z,3.87
2018-09-23T19:32:36.981Z,3.58
2018-09-23T19:35:05.744Z,3.62
2018-09-23T19:37:34.371Z,3.25
2018-09-23T19:40:03.048Z,3.40
2018-09-23T19:42:31.951Z,3.58
2018-09-23T19:45:00.524Z,3.42
2018-09-23T19:47:29.048Z,4.00
2018-09-23T19:49:57.836Z,3.33
2018-09-23T19:52:26.483Z,3.70
2018-09-23T19:54:55.310Z,4.45
2018-09-23T19:57:24.152Z,4.47
2018-09-23T19:59:52.746Z,4.78
2018-09-23T20:02:21.680Z,4.25
2018-09-23T20:04:50.291Z,4.03
2018-09-23T20:07:19.104Z,4.05
2018-09-23T20:09:48.399Z,3.67
2018-09-23T20:12:17.435Z,3.52
2018-09-23T20:14:46.107Z,4.12
2018-09-23T20:17:16.840Z,3.70
2018-09-23T20:19:45.473Z,3.62
2018-09-23T20:22:14.095Z,3.35
2018-09-23T20:24:42.755Z,3.85
2018-09-23T20:27:12.160Z,3.12
2018-09-23T20:29:40.871Z,3.47
2018-09-23T20:32:09.684Z,3.47
2018-09-23T20:34:38.371Z,3.17
2018-09-23T20:37:07.123Z,3.50
2018-09-23T20:39:35.975Z,3.55
2018-09-23T20:42:04.887Z,3.85
2018-09-23T20:44:33.515Z,3.52
2018-09-23T20:47:02.776Z,3.77
2018-09-23T20:49:31.543Z,3.90
2018-09-23T20:52:00.063Z,3.77
2018-09-23T20:54:28.663Z,3.33
2018-09-23T20:56:58.819Z,3.70
2018-09-23T20:59:27.283Z,3.70
2018-09-23T21:01:56.035Z,3.60
2018-09-23T21:04:24.488Z,4.20
2018-09-23T21:06:53.563Z,3.67
2018-09-23T21:09:22.219Z,3.90
2018-09-23T21:11:50.867Z,4.10
2018-09-23T21:14:19.827Z,3.62
2018-09-23T21:16:48.615Z,4.00
2018-09-23T21:19:17.523Z,3.65
2018-09-23T21:21:46.045Z,3.35
2018-09-23T21:24:15.139Z,3.27
2018-09-23T21:26:44.120Z,3.02
2018-09-23T21:29:12.948Z,4.15
2018-09-23T21:31:41.492Z,3.15
2018-09-23T21:34:10.118Z,3.00
2018-09-23T21:36:39.173Z,3.90
2018-09-23T21:39:09.128Z,3.10
2018-09-23T21:41:37.704Z,3.75
2018-09-23T21:50:50.556Z,3.17
2018-09-23T21:53:19.624Z,3.27
2018-09-23T21:55:48.153Z,3.08
2018-09-23T21:58:17.893Z,3.98
2018-09-23T22:00:46.417Z,3.70
2018-09-23T22:03:15.644Z,3.67
2018-09-23T22:05:44.576Z,3.50
2018-09-23T22:08:13.489Z,3.95
2018-09-23T22:10:42.005Z,3.90
2018-09-23T22:13:10.901Z,3.75
2018-09-23T22:15:39.620Z,4.03
2018-09-23T22:18:08.168Z,4.50
2018-09-23T22:20:37.017Z,4.50
2018-09-23T22:23:05.828Z,4.67
2018-09-23T22:25:34.352Z,4.58
2018-09-23T22:28:03.149Z,4.67
2018-09-23T22:30:31.732Z,4.70
2018-09-23T22:33:00.284Z,4.42
2018-09-23T22:35:28.769Z,4.22
2018-09-23T22:37:57.768Z,4.45
2018-09-23T22:40:26.237Z,4.40
2018-09-23T22:42:54.728Z,4.20
2018-09-23T22:45:23.228Z,4.25
2018-09-23T22:47:51.945Z,4.47
2018-09-23T22:50:20.690Z,3.80
2018-09-23T22:52:49.180Z,4.65
2018-09-23T22:55:18.256Z,5.00
2018-09-23T22:57:47.019Z,4.45
2018-09-23T23:00:15.520Z,4.85
2018-09-23T23:02:44.112Z,4.53
2018-09-23T23:05:13.208Z,5.47
2018-09-23T23:07:41.728Z,5.97
2018-09-23T23:10:10.176Z,4.30
2018-09-23T23:12:38.650Z,5.65
2018-09-23T23:15:07.140Z,5.20
2018-09-23T23:17:36.016Z,4.67
2018-09-23T23:20:04.604Z,4.42
2018-09-23T23:22:33.180Z,3.30
2018-09-23T23:25:01.868Z,2.30
2018-09-23T23:27:30.485Z,2.00
2018-09-23T23:29:59.228Z,2.40
2018-09-23T23:32:27.896Z,2.20
2018-09-23T23:34:56.640Z,2.65
2018-09-23T23:37:25.291Z,2.40
2018-09-23T23:39:53.932Z,2.27
2018-09-23T23:42:22.636Z,2.20
2018-09-23T23:44:51.264Z,1.82
2018-09-23T23:47:19.995Z,1.70
2018-09-23T23:49:48.864Z,2.37
2018-09-23T23:52:17.840Z,2.33
2018-09-23T23:54:46.796Z,1.90
2018-09-23T23:57:15.501Z,2.22
2018-09-23T23:59:44.398Z,1.65
